createdAt,value
2022-08-26T00:01:08.936Z,21.51
2022-08-26T00:05:58.720Z,21.49
2022-08-26T00:10:50.978Z,21.42
2022-08-26T00:15:42.528Z,21.39
2022-08-26T00:20:33.720Z,21.45
2022-08-26T00:25:23.717Z,21.46
2022-08-26T00:30:22.926Z,21.27
2022-08-26T00:35:16.600Z,21.39
2022-08-26T00:40:07.026Z,21.38
2022-08-26T00:44:56.694Z,21.41
2022-08-26T00:49:50.426Z,21.44
2022-08-26T00:54:46.823Z,21.45
2022-08-26T00:59:39.855Z,21.44
2022-08-26T01:04:30.181Z,21.38
2022-08-26T01:09:24.696Z,21.28
2022-08-26T01:14:14.553Z,21.26
2022-08-26T01:19:08.045Z,21.23
2022-08-26T01:24:04.400Z,21.17
2022-08-26T01:28:56.787Z,21.09
2022-08-26T01:33:50.334Z,21.06
2022-08-26T01:38:40.138Z,21.05
2022-08-26T01:43:35.121Z,21.05
2022-08-26T01:48:26.870Z,21.06
2022-08-26T01:53:19.264Z,21.07
2022-08-26T01:58:12.064Z,20.85
2022-08-26T02:03:22.277Z,21.00
2022-08-26T02:08:12.036Z,20.98
2022-08-26T02:13:06.786Z,20.97
2022-08-26T02:17:58.880Z,20.95
2022-08-26T02:22:50.970Z,20.88
2022-08-26T02:27:41.432Z,20.85
2022-08-26T02:32:31.098Z,20.83
2022-08-26T02:37:23.000Z,20.81
2022-08-26T02:42:15.289Z,20.81
2022-08-26T02:47:05.220Z,20.79
2022-08-26T02:51:55.381Z,20.78
2022-08-26T02:56:45.016Z,20.73
2022-08-26T03:01:39.591Z,20.70
2022-08-26T03:06:29.443Z,20.68
2022-08-26T03:11:19.224Z,20.66
2022-08-26T03:16:09.525Z,20.64
2022-08-26T03:21:02.194Z,20.59
2022-08-26T03:25:52.517Z,20.54
2022-08-26T03:30:45.836Z,20.51
2022-08-26T03:35:36.953Z,20.45
2022-08-26T03:40:32.115Z,20.40
2022-08-26T03:45:23.296Z,20.31
2022-08-26T03:50:22.791Z,20.03
2022-08-26T03:55:16.453Z,20.37
2022-08-26T04:00:15.344Z,20.35
2022-08-26T04:05:09.263Z,20.34
2022-08-26T04:09:59.601Z,20.50
2022-08-26T04:14:52.419Z,20.70
2022-08-26T04:19:49.300Z,20.36
2022-08-26T04:24:42.124Z,20.31
2022-08-26T04:29:34.808Z,20.64
2022-08-26T04:34:28.483Z,20.68
2022-08-26T04:39:22.367Z,20.74
2022-08-26T04:44:12.732Z,20.70
2022-08-26T04:49:02.457Z,20.58
2022-08-26T04:53:54.932Z,20.64
2022-08-26T04:58:47.695Z,20.63
2022-08-26T05:03:40.823Z,20.57
2022-08-26T05:08:31.795Z,20.61
2022-08-26T05:13:23.290Z,20.51
2022-08-26T05:18:17.578Z,20.25
2022-08-26T05:23:10.207Z,20.51
2022-08-26T05:28:01.440Z,20.74
2022-08-26T05:32:55.245Z,20.70
2022-08-26T05:37:50.381Z,20.59
2022-08-26T05:42:46.477Z,20.88
2022-08-26T05:47:39.449Z,20.91
2022-08-26T05:52:29.556Z,20.73
2022-08-26T05:57:23.231Z,20.74
2022-08-26T06:02:13.399Z,21.03
2022-08-26T06:07:06.356Z,20.96
2022-08-26T06:12:01.933Z,20.99
2022-08-26T06:16:57.440Z,21.01
2022-08-26T06:21:55.090Z,20.61
2022-08-26T06:26:51.104Z,21.02
2022-08-26T06:31:43.249Z,20.47
2022-08-26T06:36:46.092Z,20.98
2022-08-26T06:41:43.363Z,20.26
2022-08-26T06:46:39.718Z,20.57
2022-08-26T06:51:34.865Z,20.81
2022-08-26T06:56:30.098Z,20.61
2022-08-26T07:01:22.043Z,20.70
2022-08-26T07:06:12.006Z,20.93
2022-08-26T07:11:04.281Z,20.88
2022-08-26T07:15:58.199Z,20.95
2022-08-26T07:20:52.936Z,20.74
2022-08-26T07:25:45.921Z,20.61
2022-08-26T07:30:48.724Z,20.89
2022-08-26T07:35:43.741Z,20.86
2022-08-26T07:40:36.836Z,20.85
2022-08-26T07:45:27.961Z,21.04
2022-08-26T07:50:18.052Z,21.06
2022-08-26T07:55:11.610Z,21.08
2022-08-26T08:00:02.000Z,21.02
2022-08-26T08:05:02.595Z,21.02
2022-08-26T08:09:52.602Z,21.09
2022-08-26T08:14:49.078Z,21.06
2022-08-26T08:19:39.227Z,20.87
2022-08-26T08:24:30.114Z,20.96
2022-08-26T08:29:19.865Z,21.03
2022-08-26T08:34:12.650Z,21.01
2022-08-26T08:39:02.707Z,21.15
2022-08-26T08:43:54.643Z,21.03
2022-08-26T08:48:48.809Z,21.02
2022-08-26T08:53:45.008Z,21.14
2022-08-26T08:58:52.358Z,21.10
2022-08-26T09:03:55.148Z,20.82
2022-08-26T09:08:51.204Z,21.15
2022-08-26T09:13:42.834Z,20.99
2022-08-26T09:18:59.625Z,21.35
2022-08-26T09:23:52.387Z,21.49
2022-08-26T09:28:45.834Z,21.30
2022-08-26T09:33:36.237Z,21.52
2022-08-26T09:38:29.210Z,21.61
2022-08-26T09:43:23.222Z,21.49
2022-08-26T09:48:13.448Z,21.42
2022-08-26T09:53:12.899Z,21.35
2022-08-26T09:58:07.722Z,21.44
2022-08-26T10:03:04.776Z,21.51
2022-08-26T10:07:55.498Z,21.52
2022-08-26T10:12:53.420Z,21.41
2022-08-26T10:17:47.710Z,21.54
2022-08-26T10:22:45.891Z,21.33
2022-08-26T10:28:03.984Z,21.11
2022-08-26T10:32:58.282Z,21.53
2022-08-26T10:37:54.310Z,21.40
2022-08-26T10:42:49.001Z,21.52
2022-08-26T10:47:45.184Z,21.27
2022-08-26T10:53:01.510Z,21.58
2022-08-26T10:58:04.972Z,21.50
2022-08-26T11:03:04.597Z,21.20
2022-08-26T11:08:31.592Z,21.05
2022-08-26T11:13:22.533Z,20.56
2022-08-26T11:18:14.731Z,21.16
2022-08-26T11:23:34.843Z,21.02
2022-08-26T11:28:40.280Z,21.22
2022-08-26T11:34:02.778Z,21.61
2022-08-26T11:38:57.117Z,21.92
2022-08-26T11:43:55.217Z,22.09
2022-08-26T11:48:46.753Z,22.04
2022-08-26T11:53:40.052Z,22.08
2022-08-26T11:58:33.170Z,21.95
2022-08-26T12:03:33.160Z,22.15
2022-08-26T12:08:28.807Z,22.11
2022-08-26T12:13:27.332Z,22.00
2022-08-26T12:18:28.989Z,22.06
2022-08-26T12:23:43.273Z,22.07
2022-08-26T12:28:36.322Z,22.03
2022-08-26T12:33:32.107Z,21.92
2022-08-26T12:38:22.872Z,21.55
2022-08-26T12:43:18.836Z,21.23
2022-08-26T12:48:15.398Z,21.88
2022-08-26T13:09:06.761Z,20.97
2022-08-26T13:19:26.701Z,21.37
2022-08-26T13:24:33.801Z,21.88
2022-08-26T13:30:03.195Z,21.11
2022-08-26T13:34:58.268Z,21.69
2022-08-26T13:39:53.698Z,21.84
2022-08-26T13:44:55.633Z,21.80
2022-08-26T13:49:47.995Z,21.33
2022-08-26T13:54:38.591Z,21.99
2022-08-26T13:59:28.666Z,21.77
2022-08-26T14:04:27.277Z,21.85
2022-08-26T14:09:18.853Z,21.66
2022-08-26T14:14:08.675Z,22.13
2022-08-26T14:19:01.237Z,22.31
2022-08-26T14:23:55.919Z,22.23
2022-08-26T14:28:48.789Z,22.21
2022-08-26T14:33:42.640Z,22.20
2022-08-26T14:38:33.329Z,22.15
2022-08-26T14:43:26.310Z,22.18
2022-08-26T14:48:16.386Z,22.22
2022-08-26T14:53:18.542Z,22.24
2022-08-26T14:58:09.528Z,22.20
2022-08-26T15:03:02.154Z,22.29
2022-08-26T15:07:51.894Z,22.30
2022-08-26T15:12:41.816Z,22.38
2022-08-26T15:17:31.720Z,22.45
2022-08-26T15:22:24.064Z,22.44
2022-08-26T15:27:16.443Z,22.43
2022-08-26T15:32:06.910Z,22.36
2022-08-26T15:36:56.770Z,22.29
2022-08-26T15:41:49.592Z,22.34
2022-08-26T15:46:39.549Z,22.27
2022-08-26T15:51:33.335Z,22.23
2022-08-26T15:56:22.964Z,22.14
2022-08-26T16:01:15.299Z,22.05
2022-08-26T16:06:18.603Z,21.96
2022-08-26T16:11:08.655Z,21.94
2022-08-26T16:15:59.545Z,22.06
2022-08-26T16:21:12.794Z,22.23
2022-08-26T16:26:10.800Z,22.33
2022-08-26T16:31:00.797Z,22.36
2022-08-26T16:35:53.339Z,22.29
2022-08-26T16:40:43.145Z,22.15
2022-08-26T16:45:39.146Z,22.08
2022-08-26T16:50:32.375Z,22.00
2022-08-26T16:55:25.732Z,21.98
2022-08-26T17:00:24.542Z,21.85
2022-08-26T17:05:14.709Z,21.82
2022-08-26T17:10:04.497Z,21.79
2022-08-26T17:14:56.885Z,21.75
2022-08-26T17:19:47.070Z,21.68
2022-08-26T17:24:37.804Z,21.62
2022-08-26T17:29:27.521Z,21.55
2022-08-26T17:34:20.282Z,21.50
2022-08-26T17:39:11.203Z,21.48
2022-08-26T17:44:00.945Z,21.45
2022-08-26T17:48:50.743Z,21.41
2022-08-26T17:53:43.968Z,21.36
2022-08-26T17:58:33.645Z,21.30
2022-08-26T18:03:24.283Z,21.23
2022-08-26T18:08:13.911Z,21.18
2022-08-26T18:13:06.649Z,21.13
2022-08-26T18:17:56.304Z,21.08
2022-08-26T18:22:48.929Z,21.00
2022-08-26T18:27:40.514Z,20.97
2022-08-26T18:32:33.886Z,20.96
2022-08-26T18:37:25.802Z,20.85
2022-08-26T18:42:19.059Z,20.83
2022-08-26T18:47:11.322Z,20.73
2022-08-26T18:52:03.559Z,20.67
2022-08-26T18:56:53.248Z,20.59
2022-08-26T19:01:46.444Z,20.53
2022-08-26T19:06:40.597Z,20.50
2022-08-26T19:11:37.604Z,20.43
2022-08-26T19:16:33.459Z,20.21
2022-08-26T19:21:33.181Z,20.21
2022-08-26T19:26:24.330Z,20.10
2022-08-26T19:31:17.014Z,20.02
2022-08-26T19:36:11.426Z,19.98
2022-08-26T19:41:04.023Z,19.91
2022-08-26T19:45:53.767Z,19.87
2022-08-26T19:50:49.015Z,19.77
2022-08-26T19:55:38.891Z,19.78
2022-08-26T20:00:31.906Z,19.71
2022-08-26T20:05:24.128Z,19.66
2022-08-26T20:10:18.439Z,19.59
2022-08-26T20:15:13.108Z,19.46
2022-08-26T20:20:32.974Z,19.47
2022-08-26T20:25:26.754Z,19.38
2022-08-26T20:30:17.185Z,19.36
2022-08-26T20:35:09.118Z,19.29
2022-08-26T20:39:59.513Z,19.19
2022-08-26T20:44:54.666Z,19.11
2022-08-26T20:49:44.756Z,19.07
2022-08-26T20:54:34.429Z,18.97
2022-08-26T20:59:24.422Z,18.89
2022-08-26T21:04:19.007Z,18.90
2022-08-26T21:09:10.692Z,18.81
2022-08-26T21:14:06.743Z,18.75
2022-08-26T21:18:57.684Z,18.67
2022-08-26T21:23:52.881Z,18.42
2022-08-26T21:28:44.887Z,18.37
2022-08-26T21:33:34.376Z,18.30
2022-08-26T21:38:24.191Z,18.22
2022-08-26T21:43:35.154Z,18.21
2022-08-26T21:48:25.368Z,18.15
2022-08-26T21:53:21.786Z,18.09
2022-08-26T21:58:11.406Z,18.04
2022-08-26T22:03:03.563Z,18.01
2022-08-26T22:07:52.980Z,17.99
2022-08-26T22:12:42.355Z,17.94
2022-08-26T22:17:32.082Z,17.88
2022-08-26T22:22:24.295Z,17.86
2022-08-26T22:27:13.795Z,17.83
2022-08-26T22:32:03.405Z,17.79
2022-08-26T22:36:53.203Z,17.81
2022-08-26T22:41:46.272Z,17.86
2022-08-26T22:46:36.827Z,17.88
2022-08-26T22:51:26.754Z,17.84
2022-08-26T22:56:18.386Z,17.82
2022-08-26T23:01:11.017Z,17.85
2022-08-26T23:06:02.898Z,17.83
2022-08-26T23:10:52.288Z,17.81
2022-08-26T23:15:42.796Z,17.79
2022-08-26T23:20:35.503Z,17.75
2022-08-26T23:25:25.360Z,17.74
2022-08-26T23:30:16.978Z,17.70
2022-08-26T23:35:06.787Z,17.59
2022-08-26T23:39:58.872Z,17.54
2022-08-26T23:44:48.289Z,17.44
2022-08-26T23:49:38.590Z,17.41
2022-08-26T23:54:27.973Z,17.40
2022-08-26T23:59:20.031Z,17.39
